sensor_id;sensor_type;location;lat;lon;timestamp;temperature;humidity
43520;DHT22;46848;51.980;5.918;2024-03-08T00:23:31;5.20;80.10
43520;DHT22;46848;51.980;5.918;2024-03-08T00:25:58;5.20;80.10
43520;DHT22;46848;51.980;5.918;2024-03-08T00:28:24;5.20;80.10
43520;DHT22;46848;51.980;5.918;2024-03-08T00:30:50;5.10;79.90
43520;DHT22;46848;51.980;5.918;2024-03-08T00:33:15;5.10;80.00
43520;DHT22;46848;51.980;5.918;2024-03-08T00:35:41;5.10;80.00
43520;DHT22;46848;51.980;5.918;2024-03-08T00:38:07;5.10;80.10
43520;DHT22;46848;51.980;5.918;2024-03-08T00:40:32;5.10;80.10
43520;DHT22;46848;51.980;5.918;2024-03-08T00:42:58;5.00;80.00
43520;DHT22;46848;51.980;5.918;2024-03-08T00:45:23;5.10;80.00
43520;DHT22;46848;51.980;5.918;2024-03-08T00:47:49;5.10;79.60
43520;DHT22;46848;51.980;5.918;2024-03-08T00:50:15;5.10;79.60
43520;DHT22;46848;51.980;5.918;2024-03-08T00:52:41;5.10;79.50
43520;DHT22;46848;51.980;5.918;2024-03-08T00:55:07;5.10;79.40
43520;DHT22;46848;51.980;5.918;2024-03-08T00:57:35;5.10;79.10
43520;DHT22;46848;51.980;5.918;2024-03-08T01:00:03;5.00;79.20
43520;DHT22;46848;51.980;5.918;2024-03-08T01:02:29;5.00;78.90
43520;DHT22;46848;51.980;5.918;2024-03-08T01:04:55;5.00;79.20
43520;DHT22;46848;51.980;5.918;2024-03-08T01:07:20;4.90;79.00
43520;DHT22;46848;51.980;5.918;2024-03-08T01:09:46;4.90;79.00
43520;DHT22;46848;51.980;5.918;2024-03-08T01:12:11;4.90;79.00
43520;DHT22;46848;51.980;5.918;2024-03-08T01:14:37;4.90;78.70
43520;DHT22;46848;51.980;5.918;2024-03-08T01:17:03;4.90;79.00
43520;DHT22;46848;51.980;5.918;2024-03-08T01:19:28;4.90;78.50
43520;DHT22;46848;51.980;5.918;2024-03-08T01:21:54;4.90;78.30
43520;DHT22;46848;51.980;5.918;2024-03-08T01:24:22;4.90;78.10
43520;DHT22;46848;51.980;5.918;2024-03-08T01:26:47;4.90;78.20
43520;DHT22;46848;51.980;5.918;2024-03-08T01:29:13;4.90;78.10
43520;DHT22;46848;51.980;5.918;2024-03-08T01:31:38;4.90;78.00
43520;DHT22;46848;51.980;5.918;2024-03-08T01:34:04;4.90;77.30
43520;DHT22;46848;51.980;5.918;2024-03-08T01:36:30;4.80;77.20
43520;DHT22;46848;51.980;5.918;2024-03-08T01:38:55;4.90;77.30
43520;DHT22;46848;51.980;5.918;2024-03-08T01:41:21;4.80;76.80
43520;DHT22;46848;51.980;5.918;2024-03-08T01:43:47;4.80;77.70
43520;DHT22;46848;51.980;5.918;2024-03-08T01:46:15;4.80;77.00
43520;DHT22;46848;51.980;5.918;2024-03-08T01:48:43;4.80;76.70
43520;DHT22;46848;51.980;5.918;2024-03-08T01:51:09;4.80;76.70
43520;DHT22;46848;51.980;5.918;2024-03-08T01:53:37;4.70;76.40
43520;DHT22;46848;51.980;5.918;2024-03-08T01:56:04;4.70;76.30
43520;DHT22;46848;51.980;5.918;2024-03-08T01:58:31;4.70;76.20
43520;DHT22;46848;51.980;5.918;2024-03-08T02:00:58;4.70;76.40
43520;DHT22;46848;51.980;5.918;2024-03-08T02:03:24;4.60;76.10
43520;DHT22;46848;51.980;5.918;2024-03-08T02:05:50;4.60;76.20
43520;DHT22;46848;51.980;5.918;2024-03-08T02:08:17;4.70;76.10
43520;DHT22;46848;51.980;5.918;2024-03-08T02:10:45;4.60;75.80
43520;DHT22;46848;51.980;5.918;2024-03-08T02:13:11;4.60;76.00
43520;DHT22;46848;51.980;5.918;2024-03-08T02:15:53;4.60;75.90
43520;DHT22;46848;51.980;5.918;2024-03-08T02:18:19;4.50;76.00
43520;DHT22;46848;51.980;5.918;2024-03-08T02:20:52;4.50;75.90
43520;DHT22;46848;51.980;5.918;2024-03-08T02:23:19;4.40;76.10
43520;DHT22;46848;51.980;5.918;2024-03-08T02:25:45;4.40;76.10
43520;DHT22;46848;51.980;5.918;2024-03-08T02:28:12;4.40;76.20
43520;DHT22;46848;51.980;5.918;2024-03-08T02:30:38;4.50;76.10
43520;DHT22;46848;51.980;5.918;2024-03-08T02:33:05;4.40;76.00
43520;DHT22;46848;51.980;5.918;2024-03-08T02:35:31;4.40;76.20
43520;DHT22;46848;51.980;5.918;2024-03-08T02:37:56;4.40;76.10
43520;DHT22;46848;51.980;5.918;2024-03-08T02:40:22;4.40;76.20
43520;DHT22;46848;51.980;5.918;2024-03-08T02:42:47;4.40;76.20
43520;DHT22;46848;51.980;5.918;2024-03-08T02:45:13;4.30;76.10
43520;DHT22;46848;51.980;5.918;2024-03-08T02:47:39;4.30;76.30
43520;DHT22;46848;51.980;5.918;2024-03-08T02:50:05;4.30;76.40
43520;DHT22;46848;51.980;5.918;2024-03-08T02:52:34;4.30;76.40
43520;DHT22;46848;51.980;5.918;2024-03-08T02:55:01;4.40;76.30
43520;DHT22;46848;51.980;5.918;2024-03-08T02:57:26;4.40;76.20
43520;DHT22;46848;51.980;5.918;2024-03-08T02:59:53;4.30;76.00
43520;DHT22;46848;51.980;5.918;2024-03-08T03:02:19;4.30;76.00
43520;DHT22;46848;51.980;5.918;2024-03-08T03:04:45;4.30;76.10
43520;DHT22;46848;51.980;5.918;2024-03-08T03:07:10;4.20;76.20
43520;DHT22;46848;51.980;5.918;2024-03-08T03:09:36;4.20;76.30
43520;DHT22;46848;51.980;5.918;2024-03-08T03:12:02;4.30;76.10
43520;DHT22;46848;51.980;5.918;2024-03-08T03:14:28;4.20;76.10
43520;DHT22;46848;51.980;5.918;2024-03-08T03:16:54;4.20;76.30
43520;DHT22;46848;51.980;5.918;2024-03-08T03:19:20;4.20;76.20
43520;DHT22;46848;51.980;5.918;2024-03-08T03:21:46;4.20;76.80
43520;DHT22;46848;51.980;5.918;2024-03-08T03:24:12;4.20;76.30
43520;DHT22;46848;51.980;5.918;2024-03-08T03:26:42;4.20;76.30
43520;DHT22;46848;51.980;5.918;2024-03-08T03:29:09;4.10;76.20
43520;DHT22;46848;51.980;5.918;2024-03-08T03:31:36;4.10;76.40
43520;DHT22;46848;51.980;5.918;2024-03-08T03:34:02;4.10;76.30
43520;DHT22;46848;51.980;5.918;2024-03-08T03:36:29;4.10;76.30
43520;DHT22;46848;51.980;5.918;2024-03-08T03:38:55;4.20;76.30
43520;DHT22;46848;51.980;5.918;2024-03-08T03:41:36;4.20;76.20
43520;DHT22;46848;51.980;5.918;2024-03-08T03:44:02;4.10;76.10
43520;DHT22;46848;51.980;5.918;2024-03-08T03:46:27;4.10;76.20
43520;DHT22;46848;51.980;5.918;2024-03-08T03:48:54;4.00;76.50
43520;DHT22;46848;51.980;5.918;2024-03-08T03:51:21;3.90;76.60
43520;DHT22;46848;51.980;5.918;2024-03-08T03:53:46;3.90;76.60
43520;DHT22;46848;51.980;5.918;2024-03-08T03:56:12;3.90;76.70
43520;DHT22;46848;51.980;5.918;2024-03-08T03:58:38;3.90;76.80
43520;DHT22;46848;51.980;5.918;2024-03-08T04:01:05;3.90;76.60
43520;DHT22;46848;51.980;5.918;2024-03-08T04:03:31;3.90;76.70
43520;DHT22;46848;51.980;5.918;2024-03-08T04:05:57;3.90;76.80
43520;DHT22;46848;51.980;5.918;2024-03-08T04:08:22;3.90;76.80
43520;DHT22;46848;51.980;5.918;2024-03-08T04:10:50;3.90;76.90
43520;DHT22;46848;51.980;5.918;2024-03-08T04:13:16;3.90;76.90
43520;DHT22;46848;51.980;5.918;2024-03-08T04:15:42;3.90;77.00
43520;DHT22;46848;51.980;5.918;2024-03-08T04:18:10;3.80;77.00
43520;DHT22;46848;51.980;5.918;2024-03-08T04:20:36;3.90;77.10
43520;DHT22;46848;51.980;5.918;2024-03-08T04:23:02;3.80;76.90
43520;DHT22;46848;51.980;5.918;2024-03-08T04:25:27;3.80;77.10
43520;DHT22;46848;51.980;5.918;2024-03-08T04:27:53;3.80;77.20
43520;DHT22;46848;51.980;5.918;2024-03-08T04:30:19;3.70;77.30
43520;DHT22;46848;51.980;5.918;2024-03-08T04:32:46;3.80;77.90
43520;DHT22;46848;51.980;5.918;2024-03-08T04:35:12;3.70;77.20
43520;DHT22;46848;51.980;5.918;2024-03-08T04:37:38;3.70;77.30
43520;DHT22;46848;51.980;5.918;2024-03-08T04:40:05;3.80;77.30
43520;DHT22;46848;51.980;5.918;2024-03-08T04:42:31;3.70;77.10
43520;DHT22;46848;51.980;5.918;2024-03-08T04:44:58;3.70;77.20
43520;DHT22;46848;51.980;5.918;2024-03-08T04:47:24;3.70;77.20
43520;DHT22;46848;51.980;5.918;2024-03-08T04:49:50;3.70;77.30
43520;DHT22;46848;51.980;5.918;2024-03-08T04:52:16;3.70;77.30
43520;DHT22;46848;51.980;5.918;2024-03-08T04:54:42;3.70;77.30
43520;DHT22;46848;51.980;5.918;2024-03-08T04:57:08;3.70;77.30
43520;DHT22;46848;51.980;5.918;2024-03-08T04:59:34;3.60;77.30
43520;DHT22;46848;51.980;5.918;2024-03-08T05:01:59;3.70;77.40
43520;DHT22;46848;51.980;5.918;2024-03-08T05:04:25;3.60;77.30
43520;DHT22;46848;51.980;5.918;2024-03-08T05:06:50;3.60;77.50
43520;DHT22;46848;51.980;5.918;2024-03-08T05:09:16;3.60;77.50
43520;DHT22;46848;51.980;5.918;2024-03-08T05:11:43;3.60;77.50
43520;DHT22;46848;51.980;5.918;2024-03-08T05:14:10;3.60;77.50
43520;DHT22;46848;51.980;5.918;2024-03-08T05:16:35;3.60;77.40
43520;DHT22;46848;51.980;5.918;2024-03-08T05:19:01;3.60;77.40
43520;DHT22;46848;51.980;5.918;2024-03-08T05:21:27;3.60;77.40
43520;DHT22;46848;51.980;5.918;2024-03-08T05:23:54;3.60;77.50
43520;DHT22;46848;51.980;5.918;2024-03-08T05:26:20;3.60;77.50
43520;DHT22;46848;51.980;5.918;2024-03-08T05:28:45;3.60;77.40
43520;DHT22;46848;51.980;5.918;2024-03-08T05:31:21;3.50;77.40
43520;DHT22;46848;51.980;5.918;2024-03-08T05:33:50;3.50;77.50
43520;DHT22;46848;51.980;5.918;2024-03-08T05:36:16;3.60;77.60
43520;DHT22;46848;51.980;5.918;2024-03-08T05:38:45;3.60;77.40
43520;DHT22;46848;51.980;5.918;2024-03-08T05:41:11;3.60;77.90
43520;DHT22;46848;51.980;5.918;2024-03-08T05:43:40;3.60;77.40
43520;DHT22;46848;51.980;5.918;2024-03-08T05:46:06;3.60;77.40
43520;DHT22;46848;51.980;5.918;2024-03-08T05:48:32;3.50;77.40
43520;DHT22;46848;51.980;5.918;2024-03-08T05:50:59;3.50;77.50
43520;DHT22;46848;51.980;5.918;2024-03-08T05:53:25;3.50;77.50
43520;DHT22;46848;51.980;5.918;2024-03-08T05:55:50;3.50;77.40
43520;DHT22;46848;51.980;5.918;2024-03-08T05:58:16;3.50;77.40
43520;DHT22;46848;51.980;5.918;2024-03-08T06:00:41;3.50;77.60
43520;DHT22;46848;51.980;5.918;2024-03-08T06:03:07;3.50;77.60
43520;DHT22;46848;51.980;5.918;2024-03-08T06:05:33;3.40;77.50
43520;DHT22;46848;51.980;5.918;2024-03-08T06:07:58;3.50;77.60
43520;DHT22;46848;51.980;5.918;2024-03-08T06:10:24;3.50;77.50
43520;DHT22;46848;51.980;5.918;2024-03-08T06:12:50;3.40;77.50
43520;DHT22;46848;51.980;5.918;2024-03-08T06:15:16;3.40;77.60
43520;DHT22;46848;51.980;5.918;2024-03-08T06:17:42;3.40;77.60
43520;DHT22;46848;51.980;5.918;2024-03-08T06:20:08;3.40;77.70
43520;DHT22;46848;51.980;5.918;2024-03-08T06:22:38;3.40;77.80
43520;DHT22;46848;51.980;5.918;2024-03-08T06:25:10;3.30;77.70
43520;DHT22;46848;51.980;5.918;2024-03-08T06:27:42;3.40;77.80
43520;DHT22;46848;51.980;5.918;2024-03-08T06:30:12;3.40;77.70
43520;DHT22;46848;51.980;5.918;2024-03-08T06:32:38;3.40;77.60
43520;DHT22;46848;51.980;5.918;2024-03-08T06:35:04;3.40;77.80
43520;DHT22;46848;51.980;5.918;2024-03-08T06:37:34;3.40;77.70
43520;DHT22;46848;51.980;5.918;2024-03-08T06:40:00;3.30;77.70
43520;DHT22;46848;51.980;5.918;2024-03-08T06:42:29;3.30;77.80
43520;DHT22;46848;51.980;5.918;2024-03-08T06:44:59;3.40;77.70
43520;DHT22;46848;51.980;5.918;2024-03-08T06:47:30;3.40;77.80
43520;DHT22;46848;51.980;5.918;2024-03-08T06:49:55;3.30;77.90
43520;DHT22;46848;51.980;5.918;2024-03-08T06:52:21;3.30;78.10
43520;DHT22;46848;51.980;5.918;2024-03-08T06:54:47;3.30;78.00
43520;DHT22;46848;51.980;5.918;2024-03-08T06:57:13;3.30;78.10
43520;DHT22;46848;51.980;5.918;2024-03-08T06:59:39;3.40;78.10
43520;DHT22;46848;51.980;5.918;2024-03-08T07:02:05;3.40;78.00
43520;DHT22;46848;51.980;5.918;2024-03-08T07:04:34;3.50;78.00
43520;DHT22;46848;51.980;5.918;2024-03-08T07:07:03;3.50;77.80
43520;DHT22;46848;51.980;5.918;2024-03-08T07:09:29;3.50;77.60
43520;DHT22;46848;51.980;5.918;2024-03-08T07:11:55;3.40;77.80
43520;DHT22;46848;51.980;5.918;2024-03-08T07:14:22;3.40;77.90
43520;DHT22;46848;51.980;5.918;2024-03-08T07:16:47;3.50;78.00
43520;DHT22;46848;51.980;5.918;2024-03-08T07:19:13;3.60;77.70
43520;DHT22;46848;51.980;5.918;2024-03-08T07:21:38;3.70;77.60
43520;DHT22;46848;51.980;5.918;2024-03-08T07:24:04;3.90;78.30
43520;DHT22;46848;51.980;5.918;2024-03-08T07:26:45;4.20;77.40
43520;DHT22;46848;51.980;5.918;2024-03-08T07:29:15;4.60;75.80
43520;DHT22;46848;51.980;5.918;2024-03-08T07:31:40;4.80;74.70
43520;DHT22;46848;51.980;5.918;2024-03-08T07:34:06;5.10;72.90
43520;DHT22;46848;51.980;5.918;2024-03-08T07:36:33;5.30;73.20
43520;DHT22;46848;51.980;5.918;2024-03-08T07:38:59;5.40;72.10
43520;DHT22;46848;51.980;5.918;2024-03-08T07:41:25;5.50;72.00
43520;DHT22;46848;51.980;5.918;2024-03-08T07:43:51;5.80;72.00
43520;DHT22;46848;51.980;5.918;2024-03-08T07:46:17;6.00;70.40
43520;DHT22;46848;51.980;5.918;2024-03-08T07:48:44;6.10;70.30
43520;DHT22;46848;51.980;5.918;2024-03-08T07:51:10;6.30;69.10
43520;DHT22;46848;51.980;5.918;2024-03-08T07:53:37;6.40;69.20
43520;DHT22;46848;51.980;5.918;2024-03-08T07:56:04;6.60;69.40
43520;DHT22;46848;51.980;5.918;2024-03-08T07:58:30;6.80;67.70
43520;DHT22;46848;51.980;5.918;2024-03-08T08:00:56;7.00;66.80
43520;DHT22;46848;51.980;5.918;2024-03-08T08:03:22;7.10;67.40
43520;DHT22;46848;51.980;5.918;2024-03-08T08:05:47;7.40;66.30
43520;DHT22;46848;51.980;5.918;2024-03-08T08:08:14;7.40;64.80
43520;DHT22;46848;51.980;5.918;2024-03-08T08:10:40;7.40;65.60
43520;DHT22;46848;51.980;5.918;2024-03-08T08:13:06;7.60;65.70
43520;DHT22;46848;51.980;5.918;2024-03-08T08:15:31;7.80;65.80
43520;DHT22;46848;51.980;5.918;2024-03-08T08:17:59;8.10;65.50
43520;DHT22;46848;51.980;5.918;2024-03-08T08:20:25;8.30;64.40
43520;DHT22;46848;51.980;5.918;2024-03-08T08:22:53;8.50;63.60
43520;DHT22;46848;51.980;5.918;2024-03-08T08:25:20;8.70;62.60
43520;DHT22;46848;51.980;5.918;2024-03-08T08:27:46;8.80;62.30
43520;DHT22;46848;51.980;5.918;2024-03-08T08:30:12;8.90;61.80
43520;DHT22;46848;51.980;5.918;2024-03-08T08:32:39;9.20;64.00
43520;DHT22;46848;51.980;5.918;2024-03-08T08:35:08;9.50;62.20
43520;DHT22;46848;51.980;5.918;2024-03-08T08:37:35;9.70;62.40
43520;DHT22;46848;51.980;5.918;2024-03-08T08:40:03;9.90;61.00
43520;DHT22;46848;51.980;5.918;2024-03-08T08:42:34;10.10;63.70
43520;DHT22;46848;51.980;5.918;2024-03-08T08:45:00;10.50;61.90
43520;DHT22;46848;51.980;5.918;2024-03-08T08:47:27;10.70;59.90
43520;DHT22;46848;51.980;5.918;2024-03-08T08:49:52;10.80;60.80
43520;DHT22;46848;51.980;5.918;2024-03-08T08:52:19;10.90;57.40
43520;DHT22;46848;51.980;5.918;2024-03-08T08:54:45;10.90;60.30
43520;DHT22;46848;51.980;5.918;2024-03-08T08:57:11;11.00;60.60
43520;DHT22;46848;51.980;5.918;2024-03-08T08:59:37;11.40;62.50
43520;DHT22;46848;51.980;5.918;2024-03-08T09:02:05;11.60;61.00
43520;DHT22;46848;51.980;5.918;2024-03-08T09:04:31;11.90;63.30
43520;DHT22;46848;51.980;5.918;2024-03-08T09:06:57;12.10;58.60
43520;DHT22;46848;51.980;5.918;2024-03-08T09:09:23;12.20;61.00
43520;DHT22;46848;51.980;5.918;2024-03-08T09:11:48;12.20;58.40
43520;DHT22;46848;51.980;5.918;2024-03-08T09:14:15;12.20;55.80
43520;DHT22;46848;51.980;5.918;2024-03-08T09:16:41;12.20;56.70
43520;DHT22;46848;51.980;5.918;2024-03-08T09:19:06;12.00;55.30
43520;DHT22;46848;51.980;5.918;2024-03-08T09:21:32;11.90;60.40
43520;DHT22;46848;51.980;5.918;2024-03-08T09:23:58;11.90;58.30
43520;DHT22;46848;51.980;5.918;2024-03-08T09:26:24;12.10;63.30
43520;DHT22;46848;51.980;5.918;2024-03-08T09:28:49;12.10;56.50
43520;DHT22;46848;51.980;5.918;2024-03-08T09:31:15;12.10;58.90
43520;DHT22;46848;51.980;5.918;2024-03-08T09:33:42;12.20;61.90
43520;DHT22;46848;51.980;5.918;2024-03-08T09:36:08;12.30;60.60
43520;DHT22;46848;51.980;5.918;2024-03-08T09:38:34;12.20;56.00
43520;DHT22;46848;51.980;5.918;2024-03-08T09:41:02;12.20;57.40
43520;DHT22;46848;51.980;5.918;2024-03-08T09:43:29;12.00;58.30
43520;DHT22;46848;51.980;5.918;2024-03-08T09:45:57;12.10;58.40
43520;DHT22;46848;51.980;5.918;2024-03-08T09:48:23;12.10;55.50
43520;DHT22;46848;51.980;5.918;2024-03-08T09:50:49;11.90;55.50
43520;DHT22;46848;51.980;5.918;2024-03-08T09:53:15;11.90;61.20
43520;DHT22;46848;51.980;5.918;2024-03-08T09:55:41;12.00;58.70
43520;DHT22;46848;51.980;5.918;2024-03-08T09:58:12;12.00;59.70
43520;DHT22;46848;51.980;5.918;2024-03-08T10:00:47;12.00;56.60
43520;DHT22;46848;51.980;5.918;2024-03-08T10:03:13;12.10;57.70
43520;DHT22;46848;51.980;5.918;2024-03-08T10:05:41;12.20;59.90
43520;DHT22;46848;51.980;5.918;2024-03-08T10:08:06;12.40;59.70
43520;DHT22;46848;51.980;5.918;2024-03-08T10:10:36;12.60;59.90
43520;DHT22;46848;51.980;5.918;2024-03-08T10:13:05;12.60;57.50
43520;DHT22;46848;51.980;5.918;2024-03-08T10:15:31;12.70;60.80
43520;DHT22;46848;51.980;5.918;2024-03-08T10:17:58;12.80;59.40
43520;DHT22;46848;51.980;5.918;2024-03-08T10:20:24;12.90;60.70
43520;DHT22;46848;51.980;5.918;2024-03-08T10:22:51;13.00;62.30
43520;DHT22;46848;51.980;5.918;2024-03-08T10:25:19;13.00;55.20
43520;DHT22;46848;51.980;5.918;2024-03-08T10:27:45;13.10;60.80
43520;DHT22;46848;51.980;5.918;2024-03-08T10:30:13;13.40;61.10
43520;DHT22;46848;51.980;5.918;2024-03-08T10:32:40;13.60;57.60
43520;DHT22;46848;51.980;5.918;2024-03-08T10:35:09;13.60;56.10
43520;DHT22;46848;51.980;5.918;2024-03-08T10:37:45;13.70;60.50
43520;DHT22;46848;51.980;5.918;2024-03-08T10:40:20;13.80;57.10
43520;DHT22;46848;51.980;5.918;2024-03-08T10:42:54;13.70;54.30
43520;DHT22;46848;51.980;5.918;2024-03-08T10:50:36;13.60;53.20
43520;DHT22;46848;51.980;5.918;2024-03-08T10:53:03;13.50;56.40
43520;DHT22;46848;51.980;5.918;2024-03-08T10:55:33;13.70;58.50
43520;DHT22;46848;51.980;5.918;2024-03-08T10:58:02;13.80;55.70
43520;DHT22;46848;51.980;5.918;2024-03-08T11:00:27;13.90;54.10
43520;DHT22;46848;51.980;5.918;2024-03-08T11:02:54;13.90;54.10
43520;DHT22;46848;51.980;5.918;2024-03-08T11:05:39;13.80;53.10
43520;DHT22;46848;51.980;5.918;2024-03-08T11:08:18;13.90;56.00
43520;DHT22;46848;51.980;5.918;2024-03-08T11:10:50;13.90;52.90
43520;DHT22;46848;51.980;5.918;2024-03-08T11:13:41;13.80;50.70
43520;DHT22;46848;51.980;5.918;2024-03-08T11:16:36;13.50;52.10
43520;DHT22;46848;51.980;5.918;2024-03-08T11:21:36;13.30;52.40
43520;DHT22;46848;51.980;5.918;2024-03-08T11:24:12;13.20;51.50
43520;DHT22;46848;51.980;5.918;2024-03-08T11:26:39;13.00;51.70
43520;DHT22;46848;51.980;5.918;2024-03-08T11:32:07;12.90;52.60
43520;DHT22;46848;51.980;5.918;2024-03-08T11:34:35;13.00;52.90
43520;DHT22;46848;51.980;5.918;2024-03-08T11:37:03;13.10;52.10
43520;DHT22;46848;51.980;5.918;2024-03-08T11:39:30;13.10;51.60
43520;DHT22;46848;51.980;5.918;2024-03-08T11:41:56;13.10;51.70
43520;DHT22;46848;51.980;5.918;2024-03-08T11:44:25;12.90;51.30
43520;DHT22;46848;51.980;5.918;2024-03-08T11:46:53;13.00;51.90
43520;DHT22;46848;51.980;5.918;2024-03-08T11:49:19;13.00;52.60
43520;DHT22;46848;51.980;5.918;2024-03-08T11:51:45;13.10;51.70
43520;DHT22;46848;51.980;5.918;2024-03-08T11:54:12;13.20;51.90
43520;DHT22;46848;51.980;5.918;2024-03-08T11:56:41;13.10;52.00
43520;DHT22;46848;51.980;5.918;2024-03-08T11:59:13;13.30;52.50
43520;DHT22;46848;51.980;5.918;2024-03-08T12:01:39;13.30;51.10
43520;DHT22;46848;51.980;5.918;2024-03-08T12:04:04;13.30;50.20
43520;DHT22;46848;51.980;5.918;2024-03-08T12:06:41;13.20;49.50
43520;DHT22;46848;51.980;5.918;2024-03-08T12:09:12;13.20;49.40
43520;DHT22;46848;51.980;5.918;2024-03-08T12:11:38;13.10;49.40
43520;DHT22;46848;51.980;5.918;2024-03-08T12:14:04;13.00;50.80
43520;DHT22;46848;51.980;5.918;2024-03-08T12:16:31;13.00;50.20
43520;DHT22;46848;51.980;5.918;2024-03-08T12:18:58;13.00;50.30
43520;DHT22;46848;51.980;5.918;2024-03-08T12:21:26;12.90;49.50
43520;DHT22;46848;51.980;5.918;2024-03-08T12:24:08;12.90;49.90
43520;DHT22;46848;51.980;5.918;2024-03-08T12:26:38;12.90;51.10
43520;DHT22;46848;51.980;5.918;2024-03-08T12:31:46;13.00;49.80
43520;DHT22;46848;51.980;5.918;2024-03-08T12:34:12;13.10;49.70
43520;DHT22;46848;51.980;5.918;2024-03-08T12:36:47;13.10;50.20
43520;DHT22;46848;51.980;5.918;2024-03-08T12:39:17;13.10;49.50
43520;DHT22;46848;51.980;5.918;2024-03-08T12:41:47;13.10;49.70
43520;DHT22;46848;51.980;5.918;2024-03-08T12:44:13;13.10;50.40
43520;DHT22;46848;51.980;5.918;2024-03-08T12:46:38;13.10;49.60
43520;DHT22;46848;51.980;5.918;2024-03-08T12:49:08;13.00;49.30
43520;DHT22;46848;51.980;5.918;2024-03-08T12:51:38;12.90;49.90
43520;DHT22;46848;51.980;5.918;2024-03-08T12:54:04;12.90;49.10
43520;DHT22;46848;51.980;5.918;2024-03-08T12:56:33;12.90;50.20
43520;DHT22;46848;51.980;5.918;2024-03-08T12:59:00;12.90;50.70
43520;DHT22;46848;51.980;5.918;2024-03-08T13:01:26;13.00;50.30
43520;DHT22;46848;51.980;5.918;2024-03-08T13:03:57;12.90;50.00
43520;DHT22;46848;51.980;5.918;2024-03-08T13:06:29;12.90;50.80
43520;DHT22;46848;51.980;5.918;2024-03-08T13:08:56;13.00;51.20
43520;DHT22;46848;51.980;5.918;2024-03-08T13:11:23;13.00;50.70
43520;DHT22;46848;51.980;5.918;2024-03-08T13:13:52;12.90;49.90
43520;DHT22;46848;51.980;5.918;2024-03-08T13:16:20;12.70;50.00
43520;DHT22;46848;51.980;5.918;2024-03-08T13:18:46;12.80;50.80
43520;DHT22;46848;51.980;5.918;2024-03-08T13:21:15;12.80;50.60
43520;DHT22;46848;51.980;5.918;2024-03-08T13:23:45;12.80;51.50
43520;DHT22;46848;51.980;5.918;2024-03-08T13:26:14;12.80;51.00
43520;DHT22;46848;51.980;5.918;2024-03-08T13:28:47;12.80;51.70
43520;DHT22;46848;51.980;5.918;2024-03-08T13:31:14;12.90;50.90
43520;DHT22;46848;51.980;5.918;2024-03-08T13:33:40;12.90;50.80
43520;DHT22;46848;51.980;5.918;2024-03-08T13:36:08;13.00;51.10
43520;DHT22;46848;51.980;5.918;2024-03-08T13:38:44;13.00;50.50
43520;DHT22;46848;51.980;5.918;2024-03-08T13:41:10;12.90;50.10
43520;DHT22;46848;51.980;5.918;2024-03-08T13:43:37;12.80;50.60
43520;DHT22;46848;51.980;5.918;2024-03-08T13:46:03;12.80;51.40
43520;DHT22;46848;51.980;5.918;2024-03-08T13:48:30;12.80;50.70
43520;DHT22;46848;51.980;5.918;2024-03-08T13:50:57;12.80;50.90
43520;DHT22;46848;51.980;5.918;2024-03-08T13:53:22;12.90;51.60
43520;DHT22;46848;51.980;5.918;2024-03-08T13:55:49;13.00;51.20
43520;DHT22;46848;51.980;5.918;2024-03-08T13:58:15;13.00;50.90
43520;DHT22;46848;51.980;5.918;2024-03-08T14:00:41;13.00;50.70
43520;DHT22;46848;51.980;5.918;2024-03-08T14:03:09;12.90;51.00
43520;DHT22;46848;51.980;5.918;2024-03-08T14:05:38;12.90;50.10
43520;DHT22;46848;51.980;5.918;2024-03-08T14:08:14;12.90;50.50
43520;DHT22;46848;51.980;5.918;2024-03-08T14:10:41;12.90;51.20
43520;DHT22;46848;51.980;5.918;2024-03-08T14:13:07;12.90;50.80
43520;DHT22;46848;51.980;5.918;2024-03-08T14:15:34;13.00;51.40
43520;DHT22;46848;51.980;5.918;2024-03-08T14:18:00;12.90;50.20
43520;DHT22;46848;51.980;5.918;2024-03-08T14:20:27;12.80;50.20
43520;DHT22;46848;51.980;5.918;2024-03-08T14:22:53;12.70;51.00
43520;DHT22;46848;51.980;5.918;2024-03-08T14:25:20;12.80;51.30
43520;DHT22;46848;51.980;5.918;2024-03-08T14:27:52;12.70;51.20
43520;DHT22;46848;51.980;5.918;2024-03-08T14:30:27;12.70;51.20
43520;DHT22;46848;51.980;5.918;2024-03-08T14:33:11;12.70;51.20
43520;DHT22;46848;51.980;5.918;2024-03-08T14:35:37;12.80;51.40
43520;DHT22;46848;51.980;5.918;2024-03-08T14:38:03;12.80;51.40
43520;DHT22;46848;51.980;5.918;2024-03-08T14:40:29;12.80;51.00
43520;DHT22;46848;51.980;5.918;2024-03-08T14:42:56;12.80;51.20
43520;DHT22;46848;51.980;5.918;2024-03-08T14:45:22;12.80;51.20
43520;DHT22;46848;51.980;5.918;2024-03-08T14:47:49;12.80;50.90
43520;DHT22;46848;51.980;5.918;2024-03-08T14:50:17;12.80;50.60
43520;DHT22;46848;51.980;5.918;2024-03-08T14:52:43;12.80;50.80
43520;DHT22;46848;51.980;5.918;2024-03-08T14:55:09;12.70;50.60
43520;DHT22;46848;51.980;5.918;2024-03-08T14:57:39;12.70;51.10
43520;DHT22;46848;51.980;5.918;2024-03-08T15:00:05;12.70;51.30
43520;DHT22;46848;51.980;5.918;2024-03-08T15:02:33;12.70;51.50
43520;DHT22;46848;51.980;5.918;2024-03-08T15:05:05;12.70;51.70
43520;DHT22;46848;51.980;5.918;2024-03-08T15:07:39;12.80;52.00
43520;DHT22;46848;51.980;5.918;2024-03-08T15:10:08;12.80;51.60
43520;DHT22;46848;51.980;5.918;2024-03-08T15:12:40;12.70;51.40
43520;DHT22;46848;51.980;5.918;2024-03-08T15:15:09;12.70;51.70
43520;DHT22;46848;51.980;5.918;2024-03-08T15:17:36;12.70;51.70
43520;DHT22;46848;51.980;5.918;2024-03-08T15:20:06;12.60;51.20
43520;DHT22;46848;51.980;5.918;2024-03-08T15:22:41;12.60;52.00
43520;DHT22;46848;51.980;5.918;2024-03-08T15:25:07;12.60;52.50
43520;DHT22;46848;51.980;5.918;2024-03-08T15:27:32;12.60;51.80
43520;DHT22;46848;51.980;5.918;2024-03-08T15:29:58;12.60;52.10
43520;DHT22;46848;51.980;5.918;2024-03-08T15:32:24;12.60;52.30
43520;DHT22;46848;51.980;5.918;2024-03-08T15:34:49;12.60;52.20
43520;DHT22;46848;51.980;5.918;2024-03-08T15:37:19;12.70;52.50
43520;DHT22;46848;51.980;5.918;2024-03-08T15:39:44;12.50;51.60
43520;DHT22;46848;51.980;5.918;2024-03-08T15:42:11;12.50;51.90
43520;DHT22;46848;51.980;5.918;2024-03-08T15:44:39;12.40;52.30
43520;DHT22;46848;51.980;5.918;2024-03-08T15:47:06;12.40;51.90
43520;DHT22;46848;51.980;5.918;2024-03-08T15:49:32;12.30;52.30
43520;DHT22;46848;51.980;5.918;2024-03-08T15:51:58;12.30;52.80
43520;DHT22;46848;51.980;5.918;2024-03-08T15:54:24;12.20;52.00
43520;DHT22;46848;51.980;5.918;2024-03-08T15:56:51;12.20;52.00
43520;DHT22;46848;51.980;5.918;2024-03-08T15:59:16;12.20;52.30
43520;DHT22;46848;51.980;5.918;2024-03-08T16:01:42;12.10;52.10
43520;DHT22;46848;51.980;5.918;2024-03-08T16:04:14;12.00;52.30
43520;DHT22;46848;51.980;5.918;2024-03-08T16:06:40;12.00;52.20
43520;DHT22;46848;51.980;5.918;2024-03-08T16:09:06;11.90;52.90
43520;DHT22;46848;51.980;5.918;2024-03-08T16:11:38;11.90;52.90
43520;DHT22;46848;51.980;5.918;2024-03-08T16:14:04;11.80;52.60
43520;DHT22;46848;51.980;5.918;2024-03-08T16:16:30;11.70;52.80